sensor_id;sensor_type;location;lat;lon;timestamp;temperature;humidity
58447;DHT22;44240;51.840;7.258;2022-09-02T00:00:50;18.90;59.20
58447;DHT22;44240;51.840;7.258;2022-09-02T00:03:16;18.90;59.30
58447;DHT22;44240;51.840;7.258;2022-09-02T00:05:43;18.90;59.30
58447;DHT22;44240;51.840;7.258;2022-09-02T00:08:09;18.90;59.30
58447;DHT22;44240;51.840;7.258;2022-09-02T00:10:38;18.90;59.30
58447;DHT22;44240;51.840;7.258;2022-09-02T00:13:04;18.80;59.30
58447;DHT22;44240;51.840;7.258;2022-09-02T00:15:30;18.80;59.40
58447;DHT22;44240;51.840;7.258;2022-09-02T00:17:59;18.80;59.40
58447;DHT22;44240;51.840;7.258;2022-09-02T00:20:27;18.80;59.50
58447;DHT22;44240;51.840;7.258;2022-09-02T00:22:53;18.70;59.40
58447;DHT22;44240;51.840;7.258;2022-09-02T00:25:19;18.70;59.50
58447;DHT22;44240;51.840;7.258;2022-09-02T00:27:45;18.70;59.50
58447;DHT22;44240;51.840;7.258;2022-09-02T00:30:12;18.70;59.50
58447;DHT22;44240;51.840;7.258;2022-09-02T00:32:38;18.70;59.50
58447;DHT22;44240;51.840;7.258;2022-09-02T00:35:04;18.70;59.50
58447;DHT22;44240;51.840;7.258;2022-09-02T00:37:30;18.70;59.60
58447;DHT22;44240;51.840;7.258;2022-09-02T00:39:56;18.60;59.50
58447;DHT22;44240;51.840;7.258;2022-09-02T00:42:23;18.70;59.60
58447;DHT22;44240;51.840;7.258;2022-09-02T00:44:49;18.60;59.50
58447;DHT22;44240;51.840;7.258;2022-09-02T00:47:15;18.60;59.50
58447;DHT22;44240;51.840;7.258;2022-09-02T00:49:44;18.60;59.60
58447;DHT22;44240;51.840;7.258;2022-09-02T00:52:15;18.60;59.70
58447;DHT22;44240;51.840;7.258;2022-09-02T00:54:50;18.60;59.60
58447;DHT22;44240;51.840;7.258;2022-09-02T00:57:18;18.60;59.70
58447;DHT22;44240;51.840;7.258;2022-09-02T01:00:10;18.60;59.70
58447;DHT22;44240;51.840;7.258;2022-09-02T01:02:39;18.60;59.70
58447;DHT22;44240;51.840;7.258;2022-09-02T01:05:08;18.50;59.70
58447;DHT22;44240;51.840;7.258;2022-09-02T01:07:35;18.50;59.80
58447;DHT22;44240;51.840;7.258;2022-09-02T01:10:05;18.50;59.80
58447;DHT22;44240;51.840;7.258;2022-09-02T01:12:31;18.50;59.90
58447;DHT22;44240;51.840;7.258;2022-09-02T01:14:57;18.40;59.90
58447;DHT22;44240;51.840;7.258;2022-09-02T01:17:24;18.40;59.90
58447;DHT22;44240;51.840;7.258;2022-09-02T01:19:54;18.40;59.90
58447;DHT22;44240;51.840;7.258;2022-09-02T01:22:26;18.40;59.90
58447;DHT22;44240;51.840;7.258;2022-09-02T01:24:54;18.40;60.00
58447;DHT22;44240;51.840;7.258;2022-09-02T01:27:22;18.40;60.00
58447;DHT22;44240;51.840;7.258;2022-09-02T01:29:53;18.40;60.10
58447;DHT22;44240;51.840;7.258;2022-09-02T01:32:20;18.40;60.10
58447;DHT22;44240;51.840;7.258;2022-09-02T01:34:46;18.40;60.10
58447;DHT22;44240;51.840;7.258;2022-09-02T01:37:12;18.30;60.10
58447;DHT22;44240;51.840;7.258;2022-09-02T01:39:38;18.30;60.10
58447;DHT22;44240;51.840;7.258;2022-09-02T01:42:03;18.30;60.10
58447;DHT22;44240;51.840;7.258;2022-09-02T01:44:29;18.30;60.10
58447;DHT22;44240;51.840;7.258;2022-09-02T01:46:55;18.30;60.20
58447;DHT22;44240;51.840;7.258;2022-09-02T01:49:21;18.30;60.20
58447;DHT22;44240;51.840;7.258;2022-09-02T01:51:47;18.20;60.20
58447;DHT22;44240;51.840;7.258;2022-09-02T01:54:13;18.20;60.20
58447;DHT22;44240;51.840;7.258;2022-09-02T01:56:38;18.20;60.30
58447;DHT22;44240;51.840;7.258;2022-09-02T01:59:04;18.20;60.30
58447;DHT22;44240;51.840;7.258;2022-09-02T02:01:32;18.20;60.30
58447;DHT22;44240;51.840;7.258;2022-09-02T02:03:59;18.20;60.50
58447;DHT22;44240;51.840;7.258;2022-09-02T02:06:26;18.20;60.50
58447;DHT22;44240;51.840;7.258;2022-09-02T02:08:52;18.10;60.40
58447;DHT22;44240;51.840;7.258;2022-09-02T02:11:23;18.10;60.50
58447;DHT22;44240;51.840;7.258;2022-09-02T02:13:49;18.20;60.60
58447;DHT22;44240;51.840;7.258;2022-09-02T02:16:15;18.10;60.50
58447;DHT22;44240;51.840;7.258;2022-09-02T02:18:41;18.10;60.60
58447;DHT22;44240;51.840;7.258;2022-09-02T02:21:06;18.10;60.70
58447;DHT22;44240;51.840;7.258;2022-09-02T02:23:32;18.00;60.70
58447;DHT22;44240;51.840;7.258;2022-09-02T02:25:58;18.00;60.70
58447;DHT22;44240;51.840;7.258;2022-09-02T02:28:24;18.00;60.70
58447;DHT22;44240;51.840;7.258;2022-09-02T02:30:49;18.00;60.70
58447;DHT22;44240;51.840;7.258;2022-09-02T02:33:15;18.00;60.80
58447;DHT22;44240;51.840;7.258;2022-09-02T02:35:41;18.00;61.00
58447;DHT22;44240;51.840;7.258;2022-09-02T02:38:07;17.90;61.00
58447;DHT22;44240;51.840;7.258;2022-09-02T02:40:33;17.90;61.00
58447;DHT22;44240;51.840;7.258;2022-09-02T02:42:58;17.90;61.00
58447;DHT22;44240;51.840;7.258;2022-09-02T02:45:24;17.90;61.00
58447;DHT22;44240;51.840;7.258;2022-09-02T02:47:51;17.90;61.10
58447;DHT22;44240;51.840;7.258;2022-09-02T02:50:19;17.90;61.20
58447;DHT22;44240;51.840;7.258;2022-09-02T02:52:46;17.90;61.20
58447;DHT22;44240;51.840;7.258;2022-09-02T02:55:13;17.90;61.30
58447;DHT22;44240;51.840;7.258;2022-09-02T02:57:40;17.90;61.30
58447;DHT22;44240;51.840;7.258;2022-09-02T03:00:13;17.90;61.30
58447;DHT22;44240;51.840;7.258;2022-09-02T03:02:40;17.90;61.30
58447;DHT22;44240;51.840;7.258;2022-09-02T03:05:08;17.80;61.30
58447;DHT22;44240;51.840;7.258;2022-09-02T03:07:34;17.80;61.30
58447;DHT22;44240;51.840;7.258;2022-09-02T03:09:59;17.80;61.50
58447;DHT22;44240;51.840;7.258;2022-09-02T03:12:25;17.80;61.40
58447;DHT22;44240;51.840;7.258;2022-09-02T03:14:51;17.80;61.40
58447;DHT22;44240;51.840;7.258;2022-09-02T03:17:17;17.80;61.40
58447;DHT22;44240;51.840;7.258;2022-09-02T03:19:43;17.80;61.50
58447;DHT22;44240;51.840;7.258;2022-09-02T03:22:09;17.80;61.50
58447;DHT22;44240;51.840;7.258;2022-09-02T03:24:36;17.80;61.50
58447;DHT22;44240;51.840;7.258;2022-09-02T03:27:03;17.80;61.50
58447;DHT22;44240;51.840;7.258;2022-09-02T03:29:28;17.80;61.60
58447;DHT22;44240;51.840;7.258;2022-09-02T03:31:54;17.80;61.60
58447;DHT22;44240;51.840;7.258;2022-09-02T03:34:20;17.80;61.60
58447;DHT22;44240;51.840;7.258;2022-09-02T03:36:45;17.80;61.70
58447;DHT22;44240;51.840;7.258;2022-09-02T03:39:11;17.80;61.80
58447;DHT22;44240;51.840;7.258;2022-09-02T03:41:37;17.80;61.80
58447;DHT22;44240;51.840;7.258;2022-09-02T03:44:06;17.70;61.80
58447;DHT22;44240;51.840;7.258;2022-09-02T03:46:32;17.70;61.90
58447;DHT22;44240;51.840;7.258;2022-09-02T03:48:58;17.70;62.00
58447;DHT22;44240;51.840;7.258;2022-09-02T03:51:24;17.70;62.00
58447;DHT22;44240;51.840;7.258;2022-09-02T03:53:49;17.70;62.00
58447;DHT22;44240;51.840;7.258;2022-09-02T03:56:15;17.60;62.10
58447;DHT22;44240;51.840;7.258;2022-09-02T03:58:43;17.60;62.20
58447;DHT22;44240;51.840;7.258;2022-09-02T04:01:13;17.60;62.20
58447;DHT22;44240;51.840;7.258;2022-09-02T04:03:39;17.60;62.30
58447;DHT22;44240;51.840;7.258;2022-09-02T04:06:08;17.60;62.30
58447;DHT22;44240;51.840;7.258;2022-09-02T04:08:34;17.60;62.40
58447;DHT22;44240;51.840;7.258;2022-09-02T04:11:04;17.60;62.50
58447;DHT22;44240;51.840;7.258;2022-09-02T04:13:30;17.60;62.60
58447;DHT22;44240;51.840;7.258;2022-09-02T04:15:56;17.60;62.60
58447;DHT22;44240;51.840;7.258;2022-09-02T04:18:22;17.60;62.70
58447;DHT22;44240;51.840;7.258;2022-09-02T04:20:48;17.60;62.80
58447;DHT22;44240;51.840;7.258;2022-09-02T04:23:14;17.50;62.80
58447;DHT22;44240;51.840;7.258;2022-09-02T04:25:41;17.50;62.90
58447;DHT22;44240;51.840;7.258;2022-09-02T04:28:07;17.50;63.00
58447;DHT22;44240;51.840;7.258;2022-09-02T04:30:33;17.50;63.00
58447;DHT22;44240;51.840;7.258;2022-09-02T04:32:59;17.50;63.10
58447;DHT22;44240;51.840;7.258;2022-09-02T04:35:24;17.50;63.20
58447;DHT22;44240;51.840;7.258;2022-09-02T04:37:50;17.50;63.20
58447;DHT22;44240;51.840;7.258;2022-09-02T04:40:15;17.50;63.30
58447;DHT22;44240;51.840;7.258;2022-09-02T04:42:41;17.50;63.40
58447;DHT22;44240;51.840;7.258;2022-09-02T04:45:07;17.50;63.50
58447;DHT22;44240;51.840;7.258;2022-09-02T04:47:33;17.50;63.50
58447;DHT22;44240;51.840;7.258;2022-09-02T04:49:58;17.40;63.60
58447;DHT22;44240;51.840;7.258;2022-09-02T04:52:24;17.40;63.60
58447;DHT22;44240;51.840;7.258;2022-09-02T04:54:50;17.40;63.80
58447;DHT22;44240;51.840;7.258;2022-09-02T04:57:15;17.40;63.90
58447;DHT22;44240;51.840;7.258;2022-09-02T04:59:41;17.40;63.90
58447;DHT22;44240;51.840;7.258;2022-09-02T05:02:07;17.40;64.00
58447;DHT22;44240;51.840;7.258;2022-09-02T05:04:32;17.40;64.10
58447;DHT22;44240;51.840;7.258;2022-09-02T05:06:58;17.40;64.20
58447;DHT22;44240;51.840;7.258;2022-09-02T05:09:30;17.40;64.20
58447;DHT22;44240;51.840;7.258;2022-09-02T05:11:56;17.40;64.30
58447;DHT22;44240;51.840;7.258;2022-09-02T05:14:23;17.40;64.40
58447;DHT22;44240;51.840;7.258;2022-09-02T05:16:49;17.50;64.40
58447;DHT22;44240;51.840;7.258;2022-09-02T05:19:19;17.40;65.10
58447;DHT22;44240;51.840;7.258;2022-09-02T05:21:46;17.40;64.60
58447;DHT22;44240;51.840;7.258;2022-09-02T05:24:11;17.40;64.50
58447;DHT22;44240;51.840;7.258;2022-09-02T05:26:37;17.50;64.60
58447;DHT22;44240;51.840;7.258;2022-09-02T05:29:03;17.50;64.70
58447;DHT22;44240;51.840;7.258;2022-09-02T05:31:31;17.50;64.80
58447;DHT22;44240;51.840;7.258;2022-09-02T05:33:57;17.50;64.80
58447;DHT22;44240;51.840;7.258;2022-09-02T05:36:23;17.50;64.80
58447;DHT22;44240;51.840;7.258;2022-09-02T05:38:49;17.60;65.00
58447;DHT22;44240;51.840;7.258;2022-09-02T05:41:19;17.60;64.90
58447;DHT22;44240;51.840;7.258;2022-09-02T05:43:49;17.60;65.00
58447;DHT22;44240;51.840;7.258;2022-09-02T05:46:17;17.60;65.00
58447;DHT22;44240;51.840;7.258;2022-09-02T05:48:44;17.70;65.20
58447;DHT22;44240;51.840;7.258;2022-09-02T05:51:29;17.60;65.20
58447;DHT22;44240;51.840;7.258;2022-09-02T05:53:56;17.70;65.30
58447;DHT22;44240;51.840;7.258;2022-09-02T05:56:22;17.70;65.40
58447;DHT22;44240;51.840;7.258;2022-09-02T05:58:48;17.80;65.50
58447;DHT22;44240;51.840;7.258;2022-09-02T06:01:15;17.80;65.30
58447;DHT22;44240;51.840;7.258;2022-09-02T06:03:41;17.80;65.40
58447;DHT22;44240;51.840;7.258;2022-09-02T06:06:07;17.90;65.40
58447;DHT22;44240;51.840;7.258;2022-09-02T06:08:33;17.90;65.50
58447;DHT22;44240;51.840;7.258;2022-09-02T06:10:59;17.90;65.40
58447;DHT22;44240;51.840;7.258;2022-09-02T06:13:29;18.00;65.40
58447;DHT22;44240;51.840;7.258;2022-09-02T06:15:54;18.00;65.40
58447;DHT22;44240;51.840;7.258;2022-09-02T06:18:20;18.00;65.40
58447;DHT22;44240;51.840;7.258;2022-09-02T06:20:46;18.10;65.50
58447;DHT22;44240;51.840;7.258;2022-09-02T06:23:13;18.10;65.60
58447;DHT22;44240;51.840;7.258;2022-09-02T06:25:42;18.10;65.60
58447;DHT22;44240;51.840;7.258;2022-09-02T06:28:07;18.20;65.60
58447;DHT22;44240;51.840;7.258;2022-09-02T06:30:34;18.20;65.60
58447;DHT22;44240;51.840;7.258;2022-09-02T06:33:00;18.20;65.60
58447;DHT22;44240;51.840;7.258;2022-09-02T06:35:29;18.30;65.70
58447;DHT22;44240;51.840;7.258;2022-09-02T06:37:56;18.30;65.70
58447;DHT22;44240;51.840;7.258;2022-09-02T06:40:22;18.30;65.60
58447;DHT22;44240;51.840;7.258;2022-09-02T06:42:47;18.40;65.60
58447;DHT22;44240;51.840;7.258;2022-09-02T06:45:14;18.40;65.70
58447;DHT22;44240;51.840;7.258;2022-09-02T06:47:40;18.40;65.70
58447;DHT22;44240;51.840;7.258;2022-09-02T06:50:07;18.50;65.70
58447;DHT22;44240;51.840;7.258;2022-09-02T06:52:33;18.50;65.40
58447;DHT22;44240;51.840;7.258;2022-09-02T06:54:59;18.50;65.40
58447;DHT22;44240;51.840;7.258;2022-09-02T06:57:24;18.50;65.30
58447;DHT22;44240;51.840;7.258;2022-09-02T06:59:50;18.60;65.50
58447;DHT22;44240;51.840;7.258;2022-09-02T07:02:16;18.70;65.60
58447;DHT22;44240;51.840;7.258;2022-09-02T07:04:41;18.70;65.70
58447;DHT22;44240;51.840;7.258;2022-09-02T07:07:25;18.80;65.60
58447;DHT22;44240;51.840;7.258;2022-09-02T07:09:52;18.80;65.30
58447;DHT22;44240;51.840;7.258;2022-09-02T07:12:18;18.90;65.30
58447;DHT22;44240;51.840;7.258;2022-09-02T07:14:44;18.90;65.30
58447;DHT22;44240;51.840;7.258;2022-09-02T07:17:12;19.00;65.40
58447;DHT22;44240;51.840;7.258;2022-09-02T07:19:43;19.00;65.50
58447;DHT22;44240;51.840;7.258;2022-09-02T07:22:09;19.10;65.60
58447;DHT22;44240;51.840;7.258;2022-09-02T07:24:35;19.20;65.60
58447;DHT22;44240;51.840;7.258;2022-09-02T07:27:02;19.30;65.60
58447;DHT22;44240;51.840;7.258;2022-09-02T07:29:28;19.30;65.40
58447;DHT22;44240;51.840;7.258;2022-09-02T07:31:53;19.40;65.40
58447;DHT22;44240;51.840;7.258;2022-09-02T07:34:20;19.40;65.20
58447;DHT22;44240;51.840;7.258;2022-09-02T07:36:46;19.50;65.10
58447;DHT22;44240;51.840;7.258;2022-09-02T07:39:13;19.50;64.90
58447;DHT22;44240;51.840;7.258;2022-09-02T07:41:40;19.50;65.00
58447;DHT22;44240;51.840;7.258;2022-09-02T07:44:07;19.70;65.10
58447;DHT22;44240;51.840;7.258;2022-09-02T07:46:33;19.70;64.90
58447;DHT22;44240;51.840;7.258;2022-09-02T07:49:01;19.80;64.90
58447;DHT22;44240;51.840;7.258;2022-09-02T07:51:30;20.00;65.00
58447;DHT22;44240;51.840;7.258;2022-09-02T07:53:57;20.20;65.10
58447;DHT22;44240;51.840;7.258;2022-09-02T07:56:23;20.40;65.00
58447;DHT22;44240;51.840;7.258;2022-09-02T07:58:49;20.50;64.50
58447;DHT22;44240;51.840;7.258;2022-09-02T08:01:14;20.70;64.20
58447;DHT22;44240;51.840;7.258;2022-09-02T08:03:42;20.80;63.80
58447;DHT22;44240;51.840;7.258;2022-09-02T08:06:09;20.80;63.70
58447;DHT22;44240;51.840;7.258;2022-09-02T08:08:35;20.90;63.70
58447;DHT22;44240;51.840;7.258;2022-09-02T08:11:01;21.00;63.70
58447;DHT22;44240;51.840;7.258;2022-09-02T08:13:27;21.00;63.60
58447;DHT22;44240;51.840;7.258;2022-09-02T08:15:52;21.10;63.50
58447;DHT22;44240;51.840;7.258;2022-09-02T08:18:18;21.20;63.60
58447;DHT22;44240;51.840;7.258;2022-09-02T08:20:45;21.20;63.80
58447;DHT22;44240;51.840;7.258;2022-09-02T08:23:11;21.30;63.10
58447;DHT22;44240;51.840;7.258;2022-09-02T08:25:38;21.30;63.20
58447;DHT22;44240;51.840;7.258;2022-09-02T08:28:03;21.40;63.40
58447;DHT22;44240;51.840;7.258;2022-09-02T08:30:29;21.40;63.90
58447;DHT22;44240;51.840;7.258;2022-09-02T08:32:56;21.60;63.30
58447;DHT22;44240;51.840;7.258;2022-09-02T08:35:21;21.80;63.30
58447;DHT22;44240;51.840;7.258;2022-09-02T08:37:47;21.90;63.30
58447;DHT22;44240;51.840;7.258;2022-09-02T08:40:19;22.10;62.60
58447;DHT22;44240;51.840;7.258;2022-09-02T08:42:48;22.30;62.40
58447;DHT22;44240;51.840;7.258;2022-09-02T08:48:01;22.80;62.30
58447;DHT22;44240;51.840;7.258;2022-09-02T08:50:30;23.10;62.00
58447;DHT22;44240;51.840;7.258;2022-09-02T08:55:35;23.40;61.10
58447;DHT22;44240;51.840;7.258;2022-09-02T08:58:02;23.50;60.80
58447;DHT22;44240;51.840;7.258;2022-09-02T09:00:36;23.50;60.00
58447;DHT22;44240;51.840;7.258;2022-09-02T09:03:32;23.40;59.80
58447;DHT22;44240;51.840;7.258;2022-09-02T09:06:04;23.50;60.30
58447;DHT22;44240;51.840;7.258;2022-09-02T09:09:26;23.60;60.00
58447;DHT22;44240;51.840;7.258;2022-09-02T09:11:55;23.80;59.60
58447;DHT22;44240;51.840;7.258;2022-09-02T09:14:35;24.00;59.20
58447;DHT22;44240;51.840;7.258;2022-09-02T09:19:50;24.50;58.30
58447;DHT22;44240;51.840;7.258;2022-09-02T09:22:21;24.70;58.40
58447;DHT22;44240;51.840;7.258;2022-09-02T09:24:49;24.80;58.10
58447;DHT22;44240;51.840;7.258;2022-09-02T09:27:20;25.00;58.00
58447;DHT22;44240;51.840;7.258;2022-09-02T09:29:46;25.20;57.70
58447;DHT22;44240;51.840;7.258;2022-09-02T09:32:22;25.30;57.40
58447;DHT22;44240;51.840;7.258;2022-09-02T09:34:53;25.40;56.60
58447;DHT22;44240;51.840;7.258;2022-09-02T09:37:32;25.50;56.70
58447;DHT22;44240;51.840;7.258;2022-09-02T09:39:59;25.70;56.60
58447;DHT22;44240;51.840;7.258;2022-09-02T09:42:33;25.80;56.70
58447;DHT22;44240;51.840;7.258;2022-09-02T09:45:17;26.00;56.40
58447;DHT22;44240;51.840;7.258;2022-09-02T09:47:45;26.10;56.10
58447;DHT22;44240;51.840;7.258;2022-09-02T09:50:16;26.20;55.80
58447;DHT22;44240;51.840;7.258;2022-09-02T09:52:43;26.20;54.90
58447;DHT22;44240;51.840;7.258;2022-09-02T09:55:20;26.10;54.80
58447;DHT22;44240;51.840;7.258;2022-09-02T09:57:47;26.10;54.90
58447;DHT22;44240;51.840;7.258;2022-09-02T10:00:30;26.00;55.40
58447;DHT22;44240;51.840;7.258;2022-09-02T10:03:00;26.00;55.50
58447;DHT22;44240;51.840;7.258;2022-09-02T10:05:36;26.00;55.30
58447;DHT22;44240;51.840;7.258;2022-09-02T10:08:05;26.00;55.10
58447;DHT22;44240;51.840;7.258;2022-09-02T10:13:26;26.10;54.90
58447;DHT22;44240;51.840;7.258;2022-09-02T10:35:58;26.70;53.90
58447;DHT22;44240;51.840;7.258;2022-09-02T10:38:42;26.70;53.80
58447;DHT22;44240;51.840;7.258;2022-09-02T10:41:20;26.80;54.10
58447;DHT22;44240;51.840;7.258;2022-09-02T10:49:58;27.00;54.10
58447;DHT22;44240;51.840;7.258;2022-09-02T10:55:20;26.90;53.30
58447;DHT22;44240;51.840;7.258;2022-09-02T11:00:37;26.70;53.20
58447;DHT22;44240;51.840;7.258;2022-09-02T11:03:28;26.70;53.30
58447;DHT22;44240;51.840;7.258;2022-09-02T11:06:06;26.70;53.80
58447;DHT22;44240;51.840;7.258;2022-09-02T11:08:44;26.70;53.70
58447;DHT22;44240;51.840;7.258;2022-09-02T11:11:20;26.70;53.00
58447;DHT22;44240;51.840;7.258;2022-09-02T11:16:33;26.50;52.30
58447;DHT22;44240;51.840;7.258;2022-09-02T11:22:26;26.50;52.70
58447;DHT22;44240;51.840;7.258;2022-09-02T11:25:02;26.40;52.70
58447;DHT22;44240;51.840;7.258;2022-09-02T11:27:38;26.40;53.00
58447;DHT22;44240;51.840;7.258;2022-09-02T11:30:20;26.50;53.20
58447;DHT22;44240;51.840;7.258;2022-09-02T11:35:39;26.50;53.30
58447;DHT22;44240;51.840;7.258;2022-09-02T11:38:31;26.40;52.80
58447;DHT22;44240;51.840;7.258;2022-09-02T11:43:44;26.30;51.40
58447;DHT22;44240;51.840;7.258;2022-09-02T11:46:41;26.30;51.20
58447;DHT22;44240;51.840;7.258;2022-09-02T11:51:53;26.30;52.10
58447;DHT22;44240;51.840;7.258;2022-09-02T11:54:25;26.40;51.30
58447;DHT22;44240;51.840;7.258;2022-09-02T11:56:57;26.30;50.60
58447;DHT22;44240;51.840;7.258;2022-09-02T12:02:46;26.30;50.40
58447;DHT22;44240;51.840;7.258;2022-09-02T12:08:02;26.30;51.10
58447;DHT22;44240;51.840;7.258;2022-09-02T12:13:41;26.30;50.80
58447;DHT22;44240;51.840;7.258;2022-09-02T12:21:33;26.50;50.90
58447;DHT22;44240;51.840;7.258;2022-09-02T12:24:14;26.50;49.50
58447;DHT22;44240;51.840;7.258;2022-09-02T12:27:01;26.50;49.50
58447;DHT22;44240;51.840;7.258;2022-09-02T12:29:29;26.40;49.70
58447;DHT22;44240;51.840;7.258;2022-09-02T12:31:55;26.40;50.10
58447;DHT22;44240;51.840;7.258;2022-09-02T12:36:51;26.40;50.80
58447;DHT22;44240;51.840;7.258;2022-09-02T12:55:22;26.40;48.40
58447;DHT22;44240;51.840;7.258;2022-09-02T12:57:51;26.40;48.00
58447;DHT22;44240;51.840;7.258;2022-09-02T13:06:10;26.40;49.40
58447;DHT22;44240;51.840;7.258;2022-09-02T13:12:22;26.50;49.70
58447;DHT22;44240;51.840;7.258;2022-09-02T13:14:53;26.60;49.40
58447;DHT22;44240;51.840;7.258;2022-09-02T13:31:22;27.40;48.10
58447;DHT22;44240;51.840;7.258;2022-09-02T13:34:11;27.40;48.20
58447;DHT22;44240;51.840;7.258;2022-09-02T13:36:42;27.30;48.00
58447;DHT22;44240;51.840;7.258;2022-09-02T13:39:18;27.30;48.20
58447;DHT22;44240;51.840;7.258;2022-09-02T13:41:44;27.30;48.30
58447;DHT22;44240;51.840;7.258;2022-09-02T13:44:13;27.40;47.80
58447;DHT22;44240;51.840;7.258;2022-09-02T13:47:15;27.60;47.50
58447;DHT22;44240;51.840;7.258;2022-09-02T13:49:41;27.90;47.40
58447;DHT22;44240;51.840;7.258;2022-09-02T13:52:16;28.00;46.60
58447;DHT22;44240;51.840;7.258;2022-09-02T13:54:45;28.20;46.80
58447;DHT22;44240;51.840;7.258;2022-09-02T13:57:15;28.20;46.10
58447;DHT22;44240;51.840;7.258;2022-09-02T13:59:49;28.10;45.90
58447;DHT22;44240;51.840;7.258;2022-09-02T14:02:16;28.10;45.90
58447;DHT22;44240;51.840;7.258;2022-09-02T14:04:42;28.10;46.20
58447;DHT22;44240;51.840;7.258;2022-09-02T14:07:09;28.10;45.50
58447;DHT22;44240;51.840;7.258;2022-09-02T14:09:35;28.20;45.10
58447;DHT22;44240;51.840;7.258;2022-09-02T14:12:03;28.30;45.30
58447;DHT22;44240;51.840;7.258;2022-09-02T14:14:31;28.50;45.20
58447;DHT22;44240;51.840;7.258;2022-09-02T14:17:16;28.70;45.10
58447;DHT22;44240;51.840;7.258;2022-09-02T14:19:41;29.10;45.10
58447;DHT22;44240;51.840;7.258;2022-09-02T14:22:27;29.20;45.00
58447;DHT22;44240;51.840;7.258;2022-09-02T14:24:54;29.40;44.50
58447;DHT22;44240;51.840;7.258;2022-09-02T14:27:21;29.60;43.50
58447;DHT22;44240;51.840;7.258;2022-09-02T14:29:54;29.80;43.50
58447;DHT22;44240;51.840;7.258;2022-09-02T14:32:21;30.00;43.50
58447;DHT22;44240;51.840;7.258;2022-09-02T14:34:48;30.10;43.90
58447;DHT22;44240;51.840;7.258;2022-09-02T14:37:27;30.30;43.60
58447;DHT22;44240;51.840;7.258;2022-09-02T14:40:03;30.40;43.50
58447;DHT22;44240;51.840;7.258;2022-09-02T14:42:32;30.60;43.70
58447;DHT22;44240;51.840;7.258;2022-09-02T14:44:58;30.80;43.20
58447;DHT22;44240;51.840;7.258;2022-09-02T14:47:24;30.90;43.10
58447;DHT22;44240;51.840;7.258;2022-09-02T14:49:54;30.90;42.90
58447;DHT22;44240;51.840;7.258;2022-09-02T14:52:29;30.90;42.50
58447;DHT22;44240;51.840;7.258;2022-09-02T14:54:58;30.70;41.20
58447;DHT22;44240;51.840;7.258;2022-09-02T14:59:55;30.10;41.00
58447;DHT22;44240;51.840;7.258;2022-09-02T15:04:49;29.50;41.40
58447;DHT22;44240;51.840;7.258;2022-09-02T15:07:14;29.30;41.70
58447;DHT22;44240;51.840;7.258;2022-09-02T15:09:40;29.10;42.70
58447;DHT22;44240;51.840;7.258;2022-09-02T15:12:08;28.90;42.80
58447;DHT22;44240;51.840;7.258;2022-09-02T15:14:35;28.70;43.20
58447;DHT22;44240;51.840;7.258;2022-09-02T15:17:02;28.60;43.40
58447;DHT22;44240;51.840;7.258;2022-09-02T15:19:28;28.40;42.90
58447;DHT22;44240;51.840;7.258;2022-09-02T15:21:54;28.30;42.60
58447;DHT22;44240;51.840;7.258;2022-09-02T15:24:19;28.20;42.30
58447;DHT22;44240;51.840;7.258;2022-09-02T15:26:45;28.00;42.00
58447;DHT22;44240;51.840;7.258;2022-09-02T15:29:10;27.90;42.70
58447;DHT22;44240;51.840;7.258;2022-09-02T15:31:37;27.90;43.20
58447;DHT22;44240;51.840;7.258;2022-09-02T15:34:03;27.70;43.00
58447;DHT22;44240;51.840;7.258;2022-09-02T15:36:29;27.70;44.00
58447;DHT22;44240;51.840;7.258;2022-09-02T15:38:55;27.60;43.50
58447;DHT22;44240;51.840;7.258;2022-09-02T15:41:23;27.50;43.30
58447;DHT22;44240;51.840;7.258;2022-09-02T15:43:49;27.50;43.20
58447;DHT22;44240;51.840;7.258;2022-09-02T15:46:21;27.40;43.00
58447;DHT22;44240;51.840;7.258;2022-09-02T15:48:47;27.50;43.30
58447;DHT22;44240;51.840;7.258;2022-09-02T15:51:14;27.40;43.10
58447;DHT22;44240;51.840;7.258;2022-09-02T15:53:40;27.40;43.80
58447;DHT22;44240;51.840;7.258;2022-09-02T15:56:18;27.40;43.30
58447;DHT22;44240;51.840;7.258;2022-09-02T15:58:44;27.30;43.80
58447;DHT22;44240;51.840;7.258;2022-09-02T16:01:10;27.20;43.70
58447;DHT22;44240;51.840;7.258;2022-09-02T16:03:36;27.20;43.80
58447;DHT22;44240;51.840;7.258;2022-09-02T16:06:04;27.20;43.80
58447;DHT22;44240;51.840;7.258;2022-09-02T16:08:29;27.20;44.00
58447;DHT22;44240;51.840;7.258;2022-09-02T16:10:55;27.30;44.20
58447;DHT22;44240;51.840;7.258;2022-09-02T16:13:20;27.30;43.90
58447;DHT22;44240;51.840;7.258;2022-09-02T16:15:47;27.30;43.80
58447;DHT22;44240;51.840;7.258;2022-09-02T16:18:12;27.30;43.90
58447;DHT22;44240;51.840;7.258;2022-09-02T16:20:38;27.20;44.00
58447;DHT22;44240;51.840;7.258;2022-09-02T16:23:04;27.20;44.10
58447;DHT22;44240;51.840;7.258;2022-09-02T16:25:29;27.10;44.30
58447;DHT22;44240;51.840;7.258;2022-09-02T16:27:55;27.10;44.40
58447;DHT22;44240;51.840;7.258;2022-09-02T16:30:21;27.00;44.30
58447;DHT22;44240;51.840;7.258;2022-09-02T16:32:48;27.00;44.30
58447;DHT22;44240;51.840;7.258;2022-09-02T16:35:15;27.00;44.30
58447;DHT22;44240;51.840;7.258;2022-09-02T16:37:41;27.00;44.30
58447;DHT22;44240;51.840;7.258;2022-09-02T16:40:07;26.90;44.20
58447;DHT22;44240;51.840;7.258;2022-09-02T16:42:33;26.90;44.20
58447;DHT22;44240;51.840;7.258;2022-09-02T16:44:59;26.90;44.10
58447;DHT22;44240;51.840;7.258;2022-09-02T16:47:24;27.00;44.20
58447;DHT22;44240;51.840;7.258;2022-09-02T16:49:51;26.90;44.40
58447;DHT22;44240;51.840;7.258;2022-09-02T16:52:16;26.80;44.60
58447;DHT22;44240;51.840;7.258;2022-09-02T16:54:42;26.80;44.80
58447;DHT22;44240;51.840;7.258;2022-09-02T16:57:08;26.70;44.90
58447;DHT22;44240;51.840;7.258;2022-09-02T16:59:33;26.60;44.80
58447;DHT22;44240;51.840;7.258;2022-09-02T17:01:59;26.80;44.90
58447;DHT22;44240;51.840;7.258;2022-09-02T17:04:25;27.00;44.80
58447;DHT22;44240;51.840;7.258;2022-09-02T17:06:50;27.40;44.80
58447;DHT22;44240;51.840;7.258;2022-09-02T17:09:16;28.00;44.00
58447;DHT22;44240;51.840;7.258;2022-09-02T17:11:42;28.60;43.50
58447;DHT22;44240;51.840;7.258;2022-09-02T17:14:11;29.30;42.80
58447;DHT22;44240;51.840;7.258;2022-09-02T17:16:45;29.80;42.10
58447;DHT22;44240;51.840;7.258;2022-09-02T17:19:11;30.20;41.60
58447;DHT22;44240;51.840;7.258;2022-09-02T17:21:50;30.40;41.10
58447;DHT22;44240;51.840;7.258;2022-09-02T17:24:17;30.20;41.00
58447;DHT22;44240;51.840;7.258;2022-09-02T17:26:46;29.70;41.40
58447;DHT22;44240;51.840;7.258;2022-09-02T17:29:14;29.30;42.00
58447;DHT22;44240;51.840;7.258;2022-09-02T17:31:43;28.80;42.50
58447;DHT22;44240;51.840;7.258;2022-09-02T17:34:09;28.40;43.00
58447;DHT22;44240;51.840;7.258;2022-09-02T17:36:36;28.00;43.10